Weather at Yeni State Hospital Heliport

Public forecast

Using degrees Celsius for public forecast. Weather courtesy of forecast.io.

Closest aviation weather report (METAR) to Yeni State Hospital Heliport

Closest report is Hatay Airport, 15.2 nm (28.2 km) WNW.

2024/04/22 12:50 (retrieved 14 minutes ago)

LTDA 221250Z 22017KT 9999 FEW040 24/15 Q1017 NOSIG

Closest aviation forecast (TAF) to Yeni State Hospital Heliport

Closest forecast is Aleppo International Airport, 32.4 nm (60.0 km) E.

2024/04/22 12:39 (retrieved 25 minutes ago)

TAF OSAP 221200Z 2212/2312 03008KT 6000 SCT030 SCT100 BECMG 2216/2218 RRB03KT 6000 NSC